createdAt,value
2018-02-22T00:00:24.542Z,-1.40
2018-02-22T00:02:51.541Z,-1.40
2018-02-22T00:05:18.550Z,-1.50
2018-02-22T00:07:45.556Z,-1.60
2018-02-22T00:10:13.343Z,-1.70
2018-02-22T00:12:40.343Z,-1.70
2018-02-22T00:15:08.115Z,-1.90
2018-02-22T00:17:35.118Z,-1.90
2018-02-22T00:20:02.118Z,-1.80
2018-02-22T00:22:29.882Z,-1.70
2018-02-22T00:24:56.891Z,-1.50
2018-02-22T00:27:24.649Z,-1.80
2018-02-22T00:29:52.431Z,-1.80
2018-02-22T00:32:19.442Z,-1.70
2018-02-22T00:34:46.470Z,-1.70
2018-02-22T00:37:13.469Z,-1.70
2018-02-22T00:39:40.474Z,-1.80
2018-02-22T00:42:07.476Z,-1.90
2018-02-22T00:44:34.485Z,-1.90
2018-02-22T00:47:02.253Z,-2.00
2018-02-22T00:49:30.025Z,-2.00
2018-02-22T00:51:57.792Z,-1.90
2018-02-22T00:54:25.564Z,-1.80
2018-02-22T00:56:52.557Z,-1.80
2018-02-22T00:59:19.571Z,-1.80
2018-02-22T01:01:46.575Z,-1.80
2018-02-22T01:04:13.587Z,-2.00
2018-02-22T01:06:40.590Z,-1.90
2018-02-22T01:09:07.609Z,-1.90
2018-02-22T01:11:34.647Z,-1.90
2018-02-22T01:14:01.645Z,-2.00
2018-02-22T01:16:28.655Z,-2.00
2018-02-22T01:18:56.434Z,-2.20
2018-02-22T01:21:23.446Z,-2.20
2018-02-22T01:23:50.447Z,-2.30
2018-02-22T01:26:17.458Z,-2.30
2018-02-22T01:28:45.819Z,-2.40
2018-02-22T01:31:12.820Z,-2.40
2018-02-22T01:33:39.820Z,-2.40
2018-02-22T01:36:06.837Z,-2.40
2018-02-22T01:38:33.830Z,-2.30
2018-02-22T01:41:01.602Z,-2.40
2018-02-22T01:43:28.646Z,-2.50
2018-02-22T01:45:55.662Z,-2.40
2018-02-22T01:48:22.662Z,-2.40
2018-02-22T01:50:49.674Z,-2.30
2018-02-22T01:53:17.437Z,-2.20
2018-02-22T01:55:45.209Z,-2.30
2018-02-22T01:58:12.220Z,-2.30
2018-02-22T02:00:39.226Z,-2.20
2018-02-22T02:03:06.225Z,-2.20
2018-02-22T02:05:34.002Z,-2.20
2018-02-22T02:08:01.767Z,-2.20
2018-02-22T02:10:29.547Z,-2.30
2018-02-22T02:12:56.543Z,-2.30
2018-02-22T02:15:23.555Z,-2.30
2018-02-22T02:17:50.553Z,-2.20
2018-02-22T02:20:18.335Z,-2.30
2018-02-22T02:22:45.335Z,-2.30
2018-02-22T02:25:12.340Z,-2.30
2018-02-22T02:27:39.345Z,-2.30
2018-02-22T02:30:06.359Z,-2.20
2018-02-22T02:32:33.819Z,-2.20
2018-02-22T02:35:00.835Z,-2.20
2018-02-22T02:37:27.832Z,-2.30
2018-02-22T02:39:54.831Z,-2.30
2018-02-22T02:42:21.843Z,-2.30
2018-02-22T02:44:49.658Z,-2.30
2018-02-22T02:47:16.667Z,-2.20
2018-02-22T02:49:43.671Z,-2.30
2018-02-22T02:52:10.686Z,-2.30
2018-02-22T02:54:37.688Z,-2.20
2018-02-22T02:57:05.459Z,-2.20
2018-02-22T02:59:32.470Z,-2.20
2018-02-22T03:01:59.484Z,-2.20
2018-02-22T03:04:26.478Z,-2.20
2018-02-22T03:06:54.251Z,-2.30
2018-02-22T03:09:22.014Z,-2.20
2018-02-22T03:11:49.782Z,-2.20
2018-02-22T03:14:17.546Z,-2.20
2018-02-22T03:16:45.323Z,-2.30
2018-02-22T03:19:12.318Z,-2.30
2018-02-22T03:21:39.327Z,-2.30
2018-02-22T03:24:06.321Z,-2.30
2018-02-22T03:26:33.327Z,-2.30
2018-02-22T03:29:00.329Z,-2.40
2018-02-22T03:31:28.103Z,-2.40
2018-02-22T03:33:55.110Z,-2.50
2018-02-22T03:36:22.117Z,-2.40
2018-02-22T03:38:49.117Z,-2.40
2018-02-22T03:41:16.131Z,-2.50
2018-02-22T03:43:43.135Z,-2.40
2018-02-22T03:46:10.134Z,-2.40
2018-02-22T03:48:37.138Z,-2.40
2018-02-22T03:51:04.160Z,-2.40
2018-02-22T03:53:31.920Z,-2.40
2018-02-22T03:55:59.731Z,-2.50
2018-02-22T03:58:27.460Z,-2.60
2018-02-22T04:00:54.462Z,-2.60
2018-02-22T04:03:21.470Z,-2.60
2018-02-22T04:05:48.479Z,-2.70
2018-02-22T04:08:16.251Z,-2.70
2018-02-22T04:10:44.018Z,-2.60
2018-02-22T04:13:11.796Z,-2.60
2018-02-22T04:15:38.804Z,-2.60
2018-02-22T04:18:05.818Z,-2.60
2018-02-22T04:20:32.819Z,-2.70
2018-02-22T04:22:59.826Z,-2.70
2018-02-22T04:25:26.828Z,-2.70
2018-02-22T04:27:53.830Z,-2.70
2018-02-22T04:30:20.824Z,-2.70
2018-02-22T04:32:47.830Z,-2.60
2018-02-22T04:35:14.822Z,-2.60
2018-02-22T04:37:41.826Z,-2.60
2018-02-22T04:40:09.586Z,-2.60
2018-02-22T04:42:37.354Z,-2.60
2018-02-22T04:45:05.122Z,-2.60
2018-02-22T04:47:32.895Z,-2.50
2018-02-22T04:49:59.898Z,-2.50
2018-02-22T04:52:26.904Z,-2.50
2018-02-22T04:54:53.901Z,-2.50
2018-02-22T04:57:20.917Z,-2.50
2018-02-22T04:59:47.918Z,-2.50
2018-02-22T05:02:15.701Z,-2.50
2018-02-22T05:04:42.706Z,-2.50
2018-02-22T05:07:09.702Z,-2.50
2018-02-22T05:09:36.699Z,-2.50
2018-02-22T05:12:03.710Z,-2.40
2018-02-22T05:14:30.702Z,-2.40
2018-02-22T05:16:58.474Z,-2.50
2018-02-22T05:19:26.243Z,-2.50
2018-02-22T05:21:53.246Z,-2.50
2018-02-22T05:24:20.250Z,-2.40
2018-02-22T05:26:47.353Z,-2.40
2018-02-22T05:29:15.143Z,-2.30
2018-02-22T05:31:42.903Z,-2.30
2018-02-22T05:34:10.683Z,-2.30
2018-02-22T05:36:37.689Z,-2.40
2018-02-22T05:39:04.713Z,-2.40
2018-02-22T05:41:31.727Z,-2.30
2018-02-22T05:43:58.741Z,-2.30
2018-02-22T05:46:26.502Z,-2.20
2018-02-22T05:48:54.281Z,-2.20
2018-02-22T05:51:21.278Z,-2.20
2018-02-22T05:53:48.296Z,-2.20
2018-02-22T05:56:15.290Z,-2.20
2018-02-22T05:58:42.304Z,-2.20
2018-02-22T06:01:09.313Z,-2.10
2018-02-22T06:03:36.331Z,-2.20
2018-02-22T06:06:03.337Z,-2.10
2018-02-22T06:08:30.347Z,-2.10
2018-02-22T06:10:57.346Z,-2.20
2018-02-22T06:13:24.365Z,-2.10
2018-02-22T06:15:51.375Z,-2.10
2018-02-22T06:18:19.150Z,-2.20
2018-02-22T06:20:46.143Z,-2.20
2018-02-22T06:23:13.158Z,-2.10
2018-02-22T06:25:40.158Z,-2.10
2018-02-22T06:28:07.177Z,-2.20
2018-02-22T06:30:34.171Z,-2.20
2018-02-22T06:33:01.178Z,-2.10
2018-02-22T06:35:28.186Z,-2.10
2018-02-22T06:37:55.186Z,-2.10
2018-02-22T06:40:22.954Z,-2.00
2018-02-22T06:42:50.728Z,-2.00
2018-02-22T06:45:18.493Z,-1.90
2018-02-22T06:47:46.259Z,-1.80
2018-02-22T06:50:13.271Z,-1.90
2018-02-22T06:52:40.270Z,-1.70
2018-02-22T06:55:07.283Z,-1.80
2018-02-22T06:57:35.050Z,-1.70
2018-02-22T07:00:02.848Z,-1.70
2018-02-22T07:02:30.610Z,-1.60
2018-02-22T07:04:57.610Z,-1.60
2018-02-22T07:07:24.630Z,-1.60
2018-02-22T07:09:51.632Z,-1.50
2018-02-22T07:12:18.639Z,-1.40
2018-02-22T07:14:45.659Z,-1.40
2018-02-22T07:17:12.657Z,-1.40
2018-02-22T07:19:40.426Z,-1.30
2018-02-22T07:22:07.434Z,-1.30
2018-02-22T07:24:34.443Z,-1.20
2018-02-22T07:27:01.459Z,-1.10
2018-02-22T07:29:29.226Z,-0.80
2018-02-22T07:31:56.242Z,-0.80
2018-02-22T07:34:23.251Z,-0.80
2018-02-22T07:36:50.250Z,-0.70
2018-02-22T07:39:18.024Z,-0.80
2018-02-22T07:41:45.788Z,-0.90
2018-02-22T07:44:12.786Z,-0.90
2018-02-22T07:46:40.707Z,-0.90
2018-02-22T07:49:07.714Z,-0.80
2018-02-22T07:51:34.714Z,-0.80
2018-02-22T07:54:01.719Z,-0.70
2018-02-22T07:56:29.504Z,-0.70
2018-02-22T07:58:57.273Z,-0.60
2018-02-22T08:01:24.279Z,-0.60
2018-02-22T08:03:51.282Z,-0.50
2018-02-22T08:06:18.302Z,-0.40
2018-02-22T08:08:46.071Z,-0.10
2018-02-22T08:11:13.071Z,-0.10
2018-02-22T08:13:40.078Z,0.10
2018-02-22T08:16:07.083Z,0.40
2018-02-22T08:18:34.093Z,0.20
2018-02-22T08:21:01.082Z,0.20
2018-02-22T08:23:28.843Z,0.00
2018-02-22T08:25:56.606Z,0.00
2018-02-22T08:28:24.367Z,0.20
2018-02-22T08:30:51.398Z,0.20
2018-02-22T08:33:18.400Z,0.10
2018-02-22T08:35:45.401Z,0.10
2018-02-22T08:38:12.404Z,0.10
2018-02-22T08:40:40.174Z,0.10
2018-02-22T08:43:07.175Z,0.10
2018-02-22T08:45:34.954Z,0.20
2018-02-22T08:48:02.707Z,0.10
2018-02-22T08:50:30.466Z,0.20
2018-02-22T08:52:58.226Z,0.10
2018-02-22T08:55:26.000Z,0.10
2018-02-22T08:57:53.753Z,0.20
2018-02-22T09:00:21.523Z,0.20
2018-02-22T09:02:49.278Z,0.10
2018-02-22T09:05:17.046Z,0.10
2018-02-22T09:07:44.806Z,0.10
2018-02-22T09:10:12.579Z,0.20
2018-02-22T09:12:40.329Z,0.30
2018-02-22T09:15:08.097Z,0.30
2018-02-22T09:17:35.858Z,0.50
2018-02-22T09:20:03.616Z,0.60
2018-02-22T09:22:30.610Z,0.60
2018-02-22T09:24:57.601Z,0.50
2018-02-22T09:27:24.603Z,0.50
2018-02-22T09:29:51.602Z,0.60
2018-02-22T09:32:19.363Z,0.50
2018-02-22T09:34:47.134Z,0.70
2018-02-22T09:37:14.890Z,0.80
2018-02-22T09:39:42.658Z,0.70
2018-02-22T09:42:10.419Z,0.70
2018-02-22T09:44:38.183Z,0.90
2018-02-22T09:47:05.938Z,1.10
2018-02-22T09:49:32.952Z,1.10
2018-02-22T09:51:59.942Z,1.00
2018-02-22T09:54:28.651Z,1.10
2018-02-22T09:56:55.662Z,1.10
2018-02-22T09:59:22.658Z,1.10
2018-02-22T10:01:49.672Z,1.00
2018-02-22T10:04:17.431Z,1.10
2018-02-22T10:06:46.463Z,1.30
2018-02-22T10:09:13.453Z,1.30
2018-02-22T10:11:40.465Z,1.40
2018-02-22T10:14:07.457Z,1.40
2018-02-22T10:16:35.227Z,1.30
2018-02-22T10:19:02.996Z,1.20
2018-02-22T10:21:30.755Z,1.20
2018-02-22T10:23:58.518Z,1.30
2018-02-22T10:26:26.291Z,1.40
2018-02-22T10:28:54.042Z,1.40
2018-02-22T10:31:22.127Z,1.60
2018-02-22T10:33:49.155Z,1.50
2018-02-22T10:36:16.126Z,1.90
2018-02-22T10:38:43.570Z,1.90
2018-02-22T10:41:11.043Z,2.00
2018-02-22T10:43:38.484Z,2.20
2018-02-22T10:46:05.936Z,2.40
2018-02-22T10:48:34.157Z,3.10
2018-02-22T10:51:01.619Z,3.00
2018-02-22T10:53:29.071Z,3.30
2018-02-22T10:55:56.530Z,3.20
2018-02-22T10:58:23.982Z,3.30
2018-02-22T11:00:57.176Z,3.20
2018-02-22T11:03:24.635Z,3.30
2018-02-22T11:05:52.095Z,3.50
2018-02-22T11:08:19.547Z,3.40
2018-02-22T11:10:50.340Z,3.40
2018-02-22T11:13:17.847Z,3.60
2018-02-22T11:15:45.303Z,3.40
2018-02-22T11:18:12.762Z,3.30
2018-02-22T11:20:39.758Z,3.20
2018-02-22T11:23:07.989Z,3.00
2018-02-22T11:25:35.440Z,3.00
2018-02-22T11:28:02.479Z,3.20
2018-02-22T11:30:30.655Z,2.90
2018-02-22T11:32:58.115Z,2.90
2018-02-22T11:35:25.567Z,3.10
2018-02-22T11:37:53.022Z,3.30
2018-02-22T11:40:20.484Z,3.10
2018-02-22T11:42:47.940Z,3.00
2018-02-22T11:45:15.395Z,3.20
2018-02-22T11:47:42.846Z,3.30
2018-02-22T11:50:10.305Z,3.30
2018-02-22T11:52:37.759Z,3.30
2018-02-22T11:55:05.220Z,3.00
2018-02-22T11:57:32.671Z,3.00
2018-02-22T12:00:00.128Z,2.80
2018-02-22T12:02:27.583Z,3.10
2018-02-22T12:04:55.040Z,3.60
2018-02-22T12:07:22.499Z,4.10
2018-02-22T12:09:49.956Z,4.00
2018-02-22T12:12:17.407Z,4.10
2018-02-22T12:14:44.867Z,4.20
2018-02-22T12:17:12.320Z,4.40
2018-02-22T12:19:39.776Z,4.20
2018-02-22T12:22:07.231Z,4.60
2018-02-22T12:24:34.687Z,4.40
2018-02-22T12:27:02.152Z,4.50
2018-02-22T12:29:29.603Z,4.90
2018-02-22T12:31:57.066Z,5.40
2018-02-22T12:34:24.511Z,5.50
2018-02-22T12:36:51.982Z,5.80
2018-02-22T12:39:19.447Z,5.90
2018-02-22T12:41:46.918Z,5.50
2018-02-22T12:44:14.379Z,5.30
2018-02-22T12:46:41.832Z,5.40
2018-02-22T12:49:09.283Z,5.40
2018-02-22T12:51:36.743Z,6.20
2018-02-22T12:54:04.191Z,6.00
2018-02-22T12:56:31.648Z,5.50
2018-02-22T12:58:59.098Z,5.20
2018-02-22T13:01:26.103Z,5.10
2018-02-22T13:03:53.548Z,5.00
2018-02-22T13:06:21.776Z,5.20
2018-02-22T13:08:49.235Z,5.30
2018-02-22T13:11:16.678Z,5.40
2018-02-22T13:13:43.677Z,5.30
2018-02-22T13:16:11.442Z,5.30
2018-02-22T13:18:39.667Z,5.70
2018-02-22T13:21:06.659Z,5.70
2018-02-22T13:23:34.431Z,4.40
2018-02-22T13:26:02.651Z,4.30
2018-02-22T13:28:30.120Z,4.30
2018-02-22T13:30:57.575Z,4.50
2018-02-22T13:33:30.598Z,4.70
2018-02-22T13:35:58.367Z,5.00
2018-02-22T13:38:32.016Z,4.40
2018-02-22T13:40:59.010Z,4.40
2018-02-22T13:43:26.014Z,4.50
2018-02-22T13:45:53.007Z,4.20
2018-02-22T13:48:21.243Z,4.70
2018-02-22T13:50:54.119Z,4.70
2018-02-22T13:53:21.141Z,4.90
2018-02-22T13:55:48.141Z,4.50
2018-02-22T13:58:15.145Z,4.10
2018-02-22T14:00:54.599Z,3.80
2018-02-22T14:03:21.631Z,3.90
2018-02-22T14:05:48.613Z,4.00
2018-02-22T14:08:21.586Z,4.00
2018-02-22T14:10:48.587Z,4.40
2018-02-22T14:13:16.350Z,3.80
2018-02-22T14:15:43.341Z,3.80
2018-02-22T14:18:10.342Z,4.10
2018-02-22T14:20:37.346Z,3.60
2018-02-22T14:23:04.360Z,3.60
2018-02-22T14:25:31.357Z,3.50
2018-02-22T14:27:58.367Z,3.60
2018-02-22T14:30:25.366Z,3.60
2018-02-22T14:32:53.126Z,3.60
2018-02-22T14:35:21.478Z,3.40
2018-02-22T14:37:48.484Z,3.30
2018-02-22T14:40:15.490Z,3.10
2018-02-22T14:42:43.258Z,3.40
2018-02-22T14:45:11.177Z,3.20
2018-02-22T14:47:38.182Z,3.20
2018-02-22T14:50:05.178Z,3.10
2018-02-22T14:52:32.456Z,3.00
2018-02-22T14:54:59.499Z,2.70
2018-02-22T14:57:27.386Z,2.60
2018-02-22T14:59:55.143Z,2.60
2018-02-22T15:02:23.716Z,2.60
2018-02-22T15:04:50.710Z,2.60
2018-02-22T15:07:17.701Z,2.60
2018-02-22T15:09:44.697Z,2.50
2018-02-22T15:12:12.461Z,2.30
2018-02-22T15:14:39.482Z,2.30
2018-02-22T15:17:07.247Z,2.40
2018-02-22T15:19:35.128Z,2.40
2018-02-22T15:22:02.125Z,2.40
2018-02-22T15:24:29.122Z,2.40
2018-02-22T15:26:56.522Z,2.40
2018-02-22T15:29:23.603Z,2.50
2018-02-22T15:31:51.361Z,2.60
2018-02-22T15:34:18.397Z,2.60
2018-02-22T15:36:45.413Z,2.70
2018-02-22T15:39:12.419Z,2.60
2018-02-22T15:41:40.327Z,2.50
2018-02-22T15:44:07.435Z,2.50
2018-02-22T15:46:35.197Z,2.70
2018-02-22T15:49:02.961Z,2.70
2018-02-22T15:51:30.725Z,2.60
2018-02-22T15:53:58.490Z,2.60
2018-02-22T15:56:26.246Z,2.60
2018-02-22T15:58:54.014Z,2.70
2018-02-22T16:01:21.783Z,2.50
2018-02-22T16:03:49.550Z,2.40
2018-02-22T16:06:17.311Z,2.50
2018-02-22T16:08:45.080Z,2.40
2018-02-22T16:11:12.839Z,2.40
2018-02-22T16:13:40.599Z,2.30
2018-02-22T16:16:08.362Z,2.30
2018-02-22T16:18:36.126Z,2.30
2018-02-22T16:21:03.882Z,2.30
2018-02-22T16:23:30.894Z,2.30
2018-02-22T16:25:57.896Z,2.30
2018-02-22T16:28:25.663Z,2.20
2018-02-22T16:30:53.419Z,2.20
2018-02-22T16:33:21.198Z,2.10
2018-02-22T16:35:48.202Z,2.20
2018-02-22T16:38:15.194Z,2.10
2018-02-22T16:40:42.198Z,2.10
2018-02-22T16:43:09.203Z,2.10
2018-02-22T16:45:36.212Z,2.00
2018-02-22T16:48:03.970Z,2.00
2018-02-22T16:50:30.974Z,1.90
2018-02-22T16:52:57.962Z,2.00
2018-02-22T16:55:25.726Z,1.90
2018-02-22T16:57:53.486Z,1.90
2018-02-22T17:00:20.498Z,1.90
2018-02-22T17:02:47.500Z,1.80
2018-02-22T17:05:15.258Z,1.90
2018-02-22T17:07:43.023Z,1.80
2018-02-22T17:10:10.787Z,1.80
2018-02-22T17:12:38.555Z,1.70
2018-02-22T17:15:06.318Z,1.80
2018-02-22T17:17:39.986Z,1.70
2018-02-22T17:20:06.990Z,1.70
2018-02-22T17:22:33.998Z,1.70
2018-02-22T17:25:01.792Z,1.70
2018-02-22T17:27:34.536Z,1.70
2018-02-22T17:30:07.343Z,1.70
2018-02-22T17:32:34.690Z,1.70
2018-02-22T17:35:02.505Z,1.70
2018-02-22T17:37:29.495Z,1.70
2018-02-22T17:40:08.923Z,1.70
2018-02-22T17:42:38.374Z,1.70
2018-02-22T17:45:05.381Z,1.70
2018-02-22T17:47:33.152Z,1.60
2018-02-22T17:50:00.904Z,1.60
2018-02-22T17:52:27.898Z,1.60
2018-02-22T17:54:54.903Z,1.70
2018-02-22T17:57:22.661Z,1.60
2018-02-22T17:59:50.434Z,1.60
2018-02-22T18:02:18.202Z,1.60
2018-02-22T18:04:45.962Z,1.60
2018-02-22T18:07:13.753Z,1.60
2018-02-22T18:09:40.762Z,1.60
2018-02-22T18:12:08.522Z,1.60
2018-02-22T18:14:35.535Z,1.60
2018-02-22T18:17:02.538Z,1.60
2018-02-22T18:19:29.546Z,1.60
2018-02-22T18:21:56.542Z,1.60
2018-02-22T18:24:23.560Z,1.50
2018-02-22T18:26:51.325Z,1.60
2018-02-22T18:29:19.091Z,1.60
2018-02-22T18:31:46.850Z,1.50
2018-02-22T18:34:14.607Z,1.50
2018-02-22T18:36:42.374Z,1.50
2018-02-22T18:39:16.906Z,1.60
2018-02-22T18:41:50.369Z,1.60
2018-02-22T18:44:36.185Z,1.60
2018-02-22T18:47:03.953Z,1.50
2018-02-22T18:49:31.727Z,1.50
2018-02-22T18:51:58.766Z,1.50
2018-02-22T18:54:25.810Z,1.50
2018-02-22T18:56:53.578Z,1.50
2018-02-22T18:59:21.333Z,1.50
2018-02-22T19:01:49.090Z,1.50
2018-02-22T19:04:17.004Z,1.50
2018-02-22T19:06:44.023Z,1.50
2018-02-22T19:09:11.014Z,1.40
2018-02-22T19:11:38.013Z,1.40
2018-02-22T19:14:05.006Z,1.40
2018-02-22T19:16:32.006Z,1.40
2018-02-22T19:18:59.014Z,1.40
2018-02-22T19:21:26.019Z,1.40
2018-02-22T19:23:53.019Z,1.40
2018-02-22T19:26:20.018Z,1.40
2018-02-22T19:28:47.009Z,1.40
2018-02-22T19:31:14.025Z,1.40
2018-02-22T19:33:41.019Z,1.40
2018-02-22T19:36:08.864Z,1.40
2018-02-22T19:38:35.872Z,1.40
2018-02-22T19:41:02.868Z,1.40
2018-02-22T19:43:30.630Z,1.40
2018-02-22T19:45:58.395Z,1.30
2018-02-22T19:48:26.169Z,1.30
2018-02-22T19:50:53.178Z,1.30
2018-02-22T19:53:20.168Z,1.30
2018-02-22T19:55:47.171Z,1.20
2018-02-22T19:58:14.170Z,1.30
2018-02-22T20:00:41.175Z,1.30
2018-02-22T20:03:08.162Z,1.20
2018-02-22T20:05:35.170Z,1.20
2018-02-22T20:08:02.931Z,1.20
2018-02-22T20:10:30.697Z,1.20
2018-02-22T20:12:58.458Z,1.20
2018-02-22T20:15:26.220Z,1.20
2018-02-22T20:17:53.230Z,1.10
2018-02-22T20:20:20.227Z,1.20
2018-02-22T20:22:47.230Z,1.20
2018-02-22T20:25:15.039Z,1.20
2018-02-22T20:27:42.806Z,1.10
2018-02-22T20:30:09.803Z,1.10
2018-02-22T20:32:36.810Z,1.10
2018-02-22T20:35:03.802Z,1.10
2018-02-22T20:37:30.807Z,1.10
2018-02-22T20:39:57.815Z,1.10
2018-02-22T20:42:25.578Z,1.00
2018-02-22T20:44:53.343Z,1.00
2018-02-22T20:47:21.114Z,1.00
2018-02-22T20:49:48.865Z,1.00
2018-02-22T20:52:35.283Z,1.00
2018-02-22T20:55:04.014Z,1.00
2018-02-22T20:57:31.023Z,1.00
2018-02-22T20:59:58.013Z,1.00
2018-02-22T21:02:25.210Z,1.00
2018-02-22T21:04:52.247Z,1.00
2018-02-22T21:07:20.019Z,1.00
2018-02-22T21:09:47.789Z,1.00
2018-02-22T21:12:15.545Z,0.90
2018-02-22T21:14:43.307Z,1.00
2018-02-22T21:17:11.087Z,1.00
2018-02-22T21:19:38.079Z,0.90
2018-02-22T21:22:05.084Z,1.00
2018-02-22T21:24:32.080Z,0.90
2018-02-22T21:26:59.077Z,0.90
2018-02-22T21:29:26.080Z,1.00
2018-02-22T21:31:53.082Z,0.90
2018-02-22T21:34:20.074Z,0.90
2018-02-22T21:36:47.090Z,0.90
2018-02-22T21:39:14.082Z,0.90
2018-02-22T21:41:41.845Z,0.90
2018-02-22T21:44:09.611Z,0.90
2018-02-22T21:46:37.374Z,0.90
2018-02-22T21:49:05.138Z,0.90
2018-02-22T21:51:32.907Z,0.90
2018-02-22T21:53:59.893Z,0.90
2018-02-22T21:56:26.898Z,0.90
2018-02-22T21:58:55.378Z,0.90
2018-02-22T22:01:23.147Z,0.90
2018-02-22T22:03:50.208Z,0.90
2018-02-22T22:06:17.210Z,0.80
2018-02-22T22:08:44.206Z,0.80
2018-02-22T22:11:11.210Z,0.90
2018-02-22T22:13:38.987Z,0.90
2018-02-22T22:16:06.750Z,0.80
2018-02-22T22:18:34.522Z,0.80
2018-02-22T22:21:02.299Z,0.80
2018-02-22T22:23:29.309Z,0.80
2018-02-22T22:25:57.065Z,0.80
2018-02-22T22:28:24.271Z,0.80
2018-02-22T22:30:51.284Z,0.80
2018-02-22T22:33:19.074Z,0.80
2018-02-22T22:35:46.069Z,0.80
2018-02-22T22:38:13.841Z,0.80
2018-02-22T22:40:41.655Z,0.80
2018-02-22T22:43:08.650Z,0.70
2018-02-22T22:45:37.025Z,0.70
2018-02-22T22:48:04.035Z,0.70
2018-02-22T22:50:31.048Z,0.80
2018-02-22T22:52:58.797Z,0.70
2018-02-22T22:55:27.175Z,0.70
2018-02-22T22:57:54.938Z,0.70
2018-02-22T23:00:22.699Z,0.80
2018-02-22T23:02:50.495Z,0.80
2018-02-22T23:05:18.247Z,0.70
2018-02-22T23:07:45.258Z,0.70
2018-02-22T23:10:13.019Z,0.70
2018-02-22T23:12:40.026Z,0.70
2018-02-22T23:15:07.019Z,0.70
2018-02-22T23:17:34.788Z,0.70
2018-02-22T23:20:02.547Z,0.70
2018-02-22T23:22:30.513Z,0.70
2018-02-22T23:24:58.267Z,0.70
2018-02-22T23:27:25.283Z,0.70
2018-02-22T23:29:52.278Z,0.70
2018-02-22T23:32:20.040Z,0.70
2018-02-22T23:34:47.810Z,0.60
2018-02-22T23:37:15.561Z,0.60
2018-02-22T23:39:44.233Z,0.60
2018-02-22T23:42:13.173Z,0.60
2018-02-22T23:44:40.166Z,0.60
2018-02-22T23:47:07.166Z,0.60
2018-02-22T23:49:34.166Z,0.60
2018-02-22T23:52:01.937Z,0.60
2018-02-22T23:54:29.692Z,0.60
2018-02-22T23:56:57.454Z,0.60
2018-02-22T23:59:25.225Z,0.60
